Time;durP1;ratioP1;P1;durP2;ratioP2;P2;SDS_P1;SDS_P2;PMS_P1;PMS_P2;Temp;Humidity;BMP_temperature;BMP_pressure;BME280_temperature;BME280_humidity;BME280_pressure;Samples;Min_cycle;Max_cycle;Signal;HPM_P1;HPM_P2
2023/10/28 00:02:08;;;;;;;84.15;20.23;;;10.40;99.90;;;;;;6274407;22;20027;-88
2023/10/28 00:04:34;;;;;;;71.00;19.90;;;9.70;99.90;;;;;;6273957;22;20099;-88
2023/10/28 00:07:00;;;;;;;83.93;20.30;;;11.00;99.90;;;;;;6273482;22;20047;-88
2023/10/28 00:09:26;;;;;;;79.32;19.40;;;10.50;99.90;;;;;;6274477;22;20057;-88
2023/10/28 00:11:52;;;;;;;70.47;20.23;;;10.50;99.90;;;;;;6273723;22;20016;-88
2023/10/28 00:14:19;;;;;;;75.55;19.83;;;10.70;99.90;;;;;;6274757;22;20458;-89
2023/10/28 00:16:48;;;;;;;88.95;21.05;;;9.70;99.90;;;;;;6276243;22;20024;-88
2023/10/28 00:19:14;;;;;;;83.43;21.13;;;10.50;99.90;;;;;;6273613;22;20340;-88
2023/10/28 00:21:39;;;;;;;67.88;20.23;;;11.00;99.90;;;;;;6277467;22;20023;-88
2023/10/28 00:24:05;;;;;;;80.35;20.33;;;9.80;99.90;;;;;;6278357;22;20336;-88
2023/10/28 00:26:31;;;;;;;81.15;21.25;;;9.60;99.90;;;;;;6276705;22;20019;-88
2023/10/28 00:29:04;;;;;;;90.80;21.98;;;10.10;99.90;;;;;;6278107;22;20027;-89
2023/10/28 00:31:31;;;;;;;93.78;21.70;;;9.40;99.90;;;;;;6278001;22;20398;-89
2023/10/28 00:33:56;;;;;;;84.20;22.05;;;10.80;99.90;;;;;;6276136;22;20019;-88
2023/10/28 00:36:22;;;;;;;116.03;22.13;;;10.70;99.90;;;;;;6276931;22;20020;-89
2023/10/28 00:38:48;;;;;;;99.00;22.15;;;10.40;99.90;;;;;;6279091;22;20023;-88
2023/10/28 00:41:16;;;;;;;85.07;21.80;;;9.70;99.90;;;;;;6276186;22;20054;-88
2023/10/28 00:44:32;;;;;;;91.03;21.42;;;10.10;99.90;;;;;;6277735;22;20046;-88
2023/10/28 00:47:09;;;;;;;106.80;22.98;;;10.10;99.90;;;;;;6189340;22;20064;-88
2023/10/28 00:49:35;;;;;;;80.97;21.05;;;10.10;99.90;;;;;;6277944;22;20039;-88
2023/10/28 00:52:01;;;;;;;77.28;21.83;;;10.00;99.90;;;;;;6277680;22;20523;-89
2023/10/28 00:54:27;;;;;;;79.88;22.02;;;9.20;99.90;;;;;;6275872;22;20051;-88
2023/10/28 00:56:58;;;;;;;86.75;22.05;;;10.00;99.90;;;;;;6277462;22;20031;-88
2023/10/28 00:59:27;;;;;;;119.57;23.52;;;10.20;99.90;;;;;;6277224;22;20023;-88
2023/10/28 01:01:53;;;;;;;90.32;22.38;;;10.50;99.90;;;;;;6276691;22;20398;-89
2023/10/28 01:04:20;;;;;;;92.70;23.50;;;10.00;99.90;;;;;;6277005;22;20097;-88
2023/10/28 01:06:46;;;;;;;87.53;22.70;;;9.40;99.90;;;;;;6277755;22;20022;-88
2023/10/28 01:09:12;;;;;;;78.97;22.40;;;10.40;99.90;;;;;;6277576;22;20340;-88
2023/10/28 01:11:41;;;;;;;106.90;24.25;;;9.90;99.90;;;;;;6277574;22;20045;-88
2023/10/28 01:14:07;;;;;;;85.78;23.52;;;10.90;99.90;;;;;;6278043;22;20366;-88
2023/10/28 01:16:33;;;;;;;65.57;21.02;;;10.50;99.90;;;;;;6276063;22;20098;-88
2023/10/28 01:18:59;;;;;;;66.28;22.23;;;10.90;99.90;;;;;;6277551;22;20083;-88
2023/10/28 01:21:26;;;;;;;76.68;20.85;;;10.80;99.90;;;;;;6281986;22;20016;-88
2023/10/28 01:23:52;;;;;;;77.45;23.08;;;10.90;99.90;;;;;;6277880;22;20020;-88
2023/10/28 01:26:18;;;;;;;86.10;22.30;;;9.40;99.90;;;;;;6277499;22;20015;-89
2023/10/28 01:28:44;;;;;;;90.68;22.42;;;10.30;99.90;;;;;;6282451;22;20015;-88
2023/10/28 01:31:10;;;;;;;69.05;21.85;;;10.20;99.90;;;;;;6275485;22;20103;-89
2023/10/28 01:33:36;;;;;;;81.55;23.23;;;10.40;99.90;;;;;;6275670;22;20016;-88
2023/10/28 01:36:02;;;;;;;81.30;23.02;;;10.70;99.90;;;;;;6275489;22;20391;-87
2023/10/28 01:38:30;;;;;;;98.22;23.73;;;9.30;99.90;;;;;;6275051;22;20011;-88
2023/10/28 01:40:57;;;;;;;73.60;21.67;;;10.70;99.90;;;;;;6275818;22;20047;-88
2023/10/28 01:43:22;;;;;;;74.53;22.33;;;9.30;99.90;;;;;;6274423;22;20023;-88
2023/10/28 01:45:48;;;;;;;78.93;22.73;;;10.60;99.90;;;;;;6276088;22;20339;-88
2023/10/28 01:48:14;;;;;;;67.18;20.95;;;10.60;99.90;;;;;;6278709;22;20024;-88
2023/10/28 01:50:41;;;;;;;75.07;22.38;;;10.40;99.90;;;;;;6276353;22;20039;-88
2023/10/28 01:53:07;;;;;;;70.05;21.80;;;10.60;99.90;;;;;;6275583;22;20054;-89
2023/10/28 01:55:33;;;;;;;77.82;21.92;;;10.30;99.90;;;;;;6275282;22;20027;-88
2023/10/28 01:57:58;;;;;;;106.93;23.63;;;9.20;99.90;;;;;;6275065;22;20023;-88
2023/10/28 02:00:30;;;;;;;75.18;21.85;;;10.30;99.90;;;;;;6275345;22;20012;-88
2023/10/28 02:03:07;;;;;;;74.78;22.08;;;10.10;99.90;;;;;;6275356;22;20076;-88
2023/10/28 02:05:33;;;;;;;68.63;22.27;;;9.00;99.90;;;;;;6273803;22;20015;-88
2023/10/28 02:07:59;;;;;;;75.25;21.50;;;10.10;99.90;;;;;;6275440;22;20099;-88
2023/10/28 02:10:25;;;;;;;82.13;22.70;;;10.30;99.90;;;;;;6275102;22;20019;-88
2023/10/28 02:12:51;;;;;;;80.65;21.90;;;9.00;99.90;;;;;;6274752;22;20073;-88
2023/10/28 02:15:16;;;;;;;80.40;21.80;;;10.00;99.90;;;;;;6275362;22;20020;-89
2023/10/28 02:17:42;;;;;;;73.47;20.80;;;9.30;99.90;;;;;;6278860;22;20019;-88
2023/10/28 02:20:14;;;;;;;65.32;20.80;;;10.00;99.90;;;;;;6274820;22;20427;-86
2023/10/28 02:22:41;;;;;;;80.20;21.63;;;9.40;99.90;;;;;;6275908;22;20047;-86
2023/10/28 02:25:08;;;;;;;71.57;21.17;;;9.90;99.90;;;;;;6275986;22;20015;-89
2023/10/28 02:27:34;;;;;;;71.20;20.33;;;8.80;99.90;;;;;;6249883;22;20050;-88
2023/10/28 02:29:59;;;;;;;96.22;21.90;;;10.30;99.90;;;;;;6275671;22;20355;-89
2023/10/28 02:32:25;;;;;;;69.88;20.17;;;9.20;99.90;;;;;;6275668;22;20392;-88
2023/10/28 02:34:51;;;;;;;86.85;20.67;;;9.90;99.90;;;;;;6280264;22;20024;-88
2023/10/28 02:37:16;;;;;;;75.40;21.00;;;9.80;99.90;;;;;;6279357;22;20015;-88
2023/10/28 02:39:42;;;;;;;82.53;21.80;;;9.90;99.90;;;;;;6279477;22;20027;-88
2023/10/28 02:42:08;;;;;;;73.80;20.85;;;9.80;99.90;;;;;;6279681;22;20015;-88
2023/10/28 02:44:34;;;;;;;77.88;21.20;;;8.60;99.90;;;;;;6279909;22;20419;-88
2023/10/28 02:47:00;;;;;;;72.70;20.25;;;9.30;99.90;;;;;;6279288;22;20057;-88
2023/10/28 02:49:26;;;;;;;67.65;19.52;;;9.70;99.90;;;;;;6279845;22;20053;-88
2023/10/28 02:51:52;;;;;;;78.95;20.50;;;9.90;99.90;;;;;;6282646;22;20029;-89
2023/10/28 02:54:17;;;;;;;68.68;20.38;;;9.80;99.90;;;;;;6279747;22;20019;-89
2023/10/28 02:56:45;;;;;;;74.28;21.27;;;10.10;99.90;;;;;;6280191;22;20019;-88
2023/10/28 02:59:13;;;;;;;67.00;20.73;;;9.60;99.90;;;;;;6283265;22;20011;-88
2023/10/28 03:01:39;;;;;;;65.50;20.00;;;9.60;99.90;;;;;;6279304;22;20486;-89
2023/10/28 03:04:06;;;;;;;61.75;20.05;;;10.00;99.90;;;;;;6280004;22;20015;-88
2023/10/28 03:06:32;;;;;;;60.15;19.27;;;9.90;99.90;;;;;;6279693;22;20427;-88
2023/10/28 03:09:13;;;;;;;59.33;20.33;;;10.00;99.90;;;;;;6279161;22;20019;-88
2023/10/28 03:11:39;;;;;;;67.40;19.52;;;9.60;99.90;;;;;;6280087;22;20019;-89
2023/10/28 03:14:05;;;;;;;63.20;20.42;;;8.70;99.90;;;;;;6307702;22;20015;-89
2023/10/28 03:16:31;;;;;;;62.45;19.73;;;10.00;99.90;;;;;;6278868;22;20019;-89
2023/10/28 03:18:57;;;;;;;69.57;19.70;;;9.60;99.90;;;;;;6279537;22;20440;-89
2023/10/28 03:21:23;;;;;;;59.90;19.60;;;9.30;99.90;;;;;;6283089;22;20015;-87
2023/10/28 03:23:50;;;;;;;53.25;18.77;;;10.10;99.90;;;;;;6279614;22;20487;-87
2023/10/28 03:26:15;;;;;;;65.78;18.92;;;9.20;99.90;;;;;;6279837;22;20348;-87
2023/10/28 03:28:41;;;;;;;66.30;20.27;;;10.20;99.90;;;;;;6279260;22;20015;-86
2023/10/28 03:31:12;;;;;;;74.10;20.17;;;10.00;99.90;;;;;;6279851;22;20019;-87
2023/10/28 03:33:38;;;;;;;55.80;19.10;;;8.80;99.90;;;;;;6279718;22;20015;-87
2023/10/28 03:36:10;;;;;;;69.13;20.47;;;9.40;99.90;;;;;;6279097;22;20113;-87
2023/10/28 03:38:36;;;;;;;64.30;18.70;;;8.90;99.90;;;;;;6279869;22;20015;-87
2023/10/28 03:41:08;;;;;;;55.05;18.25;;;10.30;99.90;;;;;;6279552;22;20471;-87
2023/10/28 03:43:34;;;;;;;57.72;18.30;;;10.20;99.90;;;;;;6279145;22;20431;-87
2023/10/28 03:46:03;;;;;;;63.08;18.90;;;9.90;99.90;;;;;;6279776;22;20068;-87
2023/10/28 03:48:30;;;;;;;57.80;18.50;;;9.00;99.90;;;;;;6279251;22;20026;-87
2023/10/28 03:51:05;;;;;;;58.90;18.98;;;8.90;99.90;;;;;;6279172;22;20081;-87
2023/10/28 03:53:31;;;;;;;55.00;18.95;;;9.20;99.90;;;;;;6278933;22;20451;-87
2023/10/28 03:58:35;;;;;;;54.65;16.60;;;8.90;99.90;;;;;;6303007;22;20026;-87
2023/10/28 04:01:00;;;;;;;52.47;17.27;;;10.30;99.90;;;;;;6280736;22;20056;-87
2023/10/28 04:03:26;;;;;;;50.88;16.65;;;9.50;99.90;;;;;;6278519;22;20027;-87
2023/10/28 04:05:54;;;;;;;55.50;17.20;;;9.90;99.90;;;;;;6278513;22;20018;-87
2023/10/28 04:08:19;;;;;;;49.20;16.90;;;9.20;99.90;;;;;;6279303;22;20015;-87
2023/10/28 04:10:46;;;;;;;49.63;17.38;;;10.00;99.90;;;;;;6279390;22;20057;-86
2023/10/28 04:13:12;;;;;;;57.58;16.70;;;10.20;99.90;;;;;;6278829;22;20343;-86
2023/10/28 04:15:39;;;;;;;41.55;15.65;;;10.20;99.90;;;;;;6279626;22;20019;-87
2023/10/28 04:18:05;;;;;;;43.70;17.42;;;10.30;99.90;;;;;;6278346;22;20022;-87
2023/10/28 04:20:31;;;;;;;54.00;18.42;;;9.80;99.90;;;;;;6279099;22;20016;-87
2023/10/28 04:22:57;;;;;;;50.88;18.02;;;8.00;99.90;;;;;;6282710;22;20023;-87
2023/10/28 04:25:23;;;;;;;53.25;19.05;;;10.00;99.90;;;;;;6278086;22;20347;-87
2023/10/28 04:27:49;;;;;;;46.88;17.90;;;10.40;99.90;;;;;;6279603;22;20022;-87
2023/10/28 04:30:15;;;;;;;47.25;16.88;;;10.30;99.90;;;;;;6282719;22;20063;-87
2023/10/28 04:32:42;;;;;;;45.85;17.27;;;9.00;99.90;;;;;;6278631;22;20045;-87
2023/10/28 04:35:11;;;;;;;45.72;17.98;;;10.40;99.90;;;;;;6279569;22;20018;-89
2023/10/28 04:37:58;;;;;;;46.72;17.35;;;9.20;99.90;;;;;;6279253;22;20023;-89
2023/10/28 04:40:37;;;;;;;45.50;17.25;;;10.20;99.90;;;;;;6278531;22;20019;-89
2023/10/28 04:43:04;;;;;;;40.17;16.65;;;9.10;99.90;;;;;;6279506;22;20023;-89
2023/10/28 04:45:30;;;;;;;48.22;17.25;;;10.40;99.90;;;;;;6279068;22;20019;-89
2023/10/28 04:47:56;;;;;;;44.33;17.35;;;9.40;99.90;;;;;;6278050;22;20094;-89
2023/10/28 04:50:31;;;;;;;40.60;16.83;;;10.30;99.90;;;;;;6279457;22;20050;-90
2023/10/28 04:52:57;;;;;;;41.38;16.33;;;10.60;99.90;;;;;;6282540;22;20084;-89
2023/10/28 04:55:23;;;;;;;41.67;16.63;;;10.00;99.90;;;;;;6282981;22;20375;-89
2023/10/28 04:57:48;;;;;;;46.30;17.45;;;9.30;99.90;;;;;;6278875;22;20458;-89
2023/10/28 05:00:16;;;;;;;48.80;17.25;;;10.30;99.90;;;;;;6278192;22;20019;-89
2023/10/28 05:02:42;;;;;;;42.75;16.40;;;9.40;99.90;;;;;;6279021;22;20292;-89
2023/10/28 05:05:08;;;;;;;42.58;16.30;;;9.50;99.90;;;;;;6279657;22;20016;-89
2023/10/28 05:07:34;;;;;;;39.10;17.00;;;9.40;99.90;;;;;;6279630;22;20012;-89
2023/10/28 05:09:59;;;;;;;41.45;16.50;;;11.00;99.90;;;;;;6281706;22;20011;-89
2023/10/28 05:12:25;;;;;;;40.17;15.60;;;10.40;99.90;;;;;;6281201;22;20380;-89
2023/10/28 05:14:51;;;;;;;39.55;15.40;;;10.40;99.90;;;;;;6280199;22;20007;-89
2023/10/28 05:17:17;;;;;;;40.92;16.10;;;9.40;99.90;;;;;;6280748;22;20023;-88
2023/10/28 05:19:42;;;;;;;31.70;14.25;;;11.10;99.90;;;;;;6281046;22;20047;-88
2023/10/28 05:22:08;;;;;;;37.35;15.88;;;9.50;99.90;;;;;;6280202;22;20011;-89
2023/10/28 05:24:34;;;;;;;38.42;15.65;;;9.60;99.90;;;;;;6281274;22;20098;-89
2023/10/28 05:26:59;;;;;;;38.55;16.50;;;9.50;99.90;;;;;;6281636;22;20015;-89
2023/10/28 05:29:25;;;;;;;35.08;14.27;;;10.30;99.90;;;;;;6280092;22;20399;-89
2023/10/28 05:31:51;;;;;;;45.17;15.82;;;9.60;99.90;;;;;;6281117;22;20311;-89
2023/10/28 05:34:19;;;;;;;33.97;13.90;;;9.30;99.90;;;;;;6280582;22;20019;-89
2023/10/28 05:36:44;;;;;;;35.47;14.73;;;10.90;99.90;;;;;;6280153;22;20102;-89
2023/10/28 05:39:11;;;;;;;31.67;13.50;;;9.70;99.90;;;;;;6280702;22;20051;-89
2023/10/28 05:41:36;;;;;;;34.17;12.88;;;10.60;99.90;;;;;;6281173;22;20064;-89
2023/10/28 05:44:02;;;;;;;32.90;13.55;;;10.70;99.90;;;;;;6281852;22;20019;-89
2023/10/28 05:46:28;;;;;;;33.50;12.85;;;9.70;99.90;;;;;;6280596;22;20039;-89
2023/10/28 05:48:53;;;;;;;28.75;11.38;;;9.60;99.90;;;;;;6282317;22;20019;-89
2023/10/28 05:51:19;;;;;;;31.40;12.48;;;9.70;99.90;;;;;;6281703;22;20015;-89
2023/10/28 05:53:45;;;;;;;31.77;11.68;;;10.10;99.90;;;;;;6282343;22;20352;-89
2023/10/28 05:56:11;;;;;;;28.40;11.88;;;11.00;99.90;;;;;;6285500;22;19999;-89
2023/10/28 05:58:37;;;;;;;26.35;10.95;;;10.60;99.90;;;;;;6279997;22;20389;-89
2023/10/28 06:01:03;;;;;;;28.90;10.47;;;10.50;99.90;;;;;;6281756;22;20019;-91
2023/10/28 06:03:32;;;;;;;28.55;10.70;;;9.60;99.90;;;;;;6311326;22;20019;-86
2023/10/28 06:05:57;;;;;;;24.42;10.02;;;10.70;99.90;;;;;;6280646;22;20025;-85
2023/10/28 06:08:23;;;;;;;22.42;8.98;;;11.20;99.90;;;;;;6308310;22;20374;-87
2023/10/28 06:11:04;;;;;;;25.17;10.02;;;10.90;99.90;;;;;;6281218;22;20011;-87
2023/10/28 06:13:30;;;;;;;22.95;9.50;;;11.10;99.90;;;;;;6281180;22;20072;-84
2023/10/28 06:15:55;;;;;;;19.83;8.32;;;10.80;99.90;;;;;;6282200;22;20398;-85
2023/10/28 06:18:21;;;;;;;20.40;8.70;;;11.10;99.90;;;;;;6282213;22;20439;-85
2023/10/28 06:20:47;;;;;;;19.40;8.77;;;10.80;99.90;;;;;;6281641;22;20022;-84
2023/10/28 06:23:15;;;;;;;19.77;8.20;;;10.30;99.90;;;;;;6281284;22;20045;-84
2023/10/28 06:25:40;;;;;;;20.27;8.18;;;11.20;99.90;;;;;;6283342;22;20030;-84
2023/10/28 06:28:06;;;;;;;18.02;7.85;;;9.70;99.90;;;;;;6297085;22;20091;-87
2023/10/28 06:30:33;;;;;;;20.13;7.57;;;10.70;99.90;;;;;;6284052;22;20034;-88
2023/10/28 06:32:58;;;;;;;18.55;8.10;;;10.80;99.90;;;;;;6283643;22;20451;-87
2023/10/28 06:35:25;;;;;;;20.95;8.05;;;11.00;99.90;;;;;;6282844;22;20026;-87
2023/10/28 06:37:51;;;;;;;16.98;7.45;;;11.10;99.90;;;;;;6283118;22;20386;-88
2023/10/28 06:40:16;;;;;;;16.08;6.95;;;9.90;99.90;;;;;;6280694;22;20019;-85
2023/10/28 06:42:42;;;;;;;20.48;7.22;;;10.80;99.90;;;;;;6280923;22;20376;-81
2023/10/28 06:45:10;;;;;;;18.33;7.25;;;9.70;99.90;;;;;;6280116;22;20015;-80
2023/10/28 06:47:36;;;;;;;18.73;6.93;;;9.70;99.90;;;;;;6279083;22;20027;-81
2023/10/28 06:50:04;;;;;;;15.27;6.60;;;10.40;99.90;;;;;;6280175;22;20312;-81
2023/10/28 06:52:31;;;;;;;18.02;7.53;;;9.70;99.90;;;;;;6307504;22;20343;-81
2023/10/28 06:54:59;;;;;;;17.85;6.97;;;9.70;99.90;;;;;;6306639;22;20084;-81
2023/10/28 06:57:25;;;;;;;16.70;6.90;;;9.70;99.90;;;;;;6280081;22;20022;-84
2023/10/28 06:59:58;;;;;;;16.23;6.38;;;9.70;99.90;;;;;;6280143;22;20047;-83
2023/10/28 07:02:24;;;;;;;16.27;6.28;;;10.90;99.90;;;;;;6307896;22;20037;-83
2023/10/28 07:04:50;;;;;;;18.40;6.28;;;11.00;99.90;;;;;;6280429;22;20332;-84
2023/10/28 07:07:16;;;;;;;18.15;5.70;;;9.60;99.90;;;;;;6279721;22;20454;-85
2023/10/28 07:09:42;;;;;;;16.65;5.88;;;10.10;99.90;;;;;;6281001;22;20023;-84
2023/10/28 07:12:08;;;;;;;12.68;5.60;;;9.20;99.90;;;;;;6281044;22;20019;-84
2023/10/28 07:14:34;;;;;;;13.18;5.85;;;10.10;99.90;;;;;;6280193;22;20352;-85
2023/10/28 07:17:00;;;;;;;14.10;5.50;;;10.60;99.90;;;;;;6279383;22;20048;-84
2023/10/28 07:19:26;;;;;;;12.95;5.20;;;10.80;99.90;;;;;;6279064;22;20080;-84
2023/10/28 07:21:52;;;;;;;14.98;5.05;;;9.50;99.90;;;;;;6278492;22;20439;-84
2023/10/28 07:24:17;;;;;;;16.58;5.53;;;10.30;99.90;;;;;;6279548;22;20056;-85
2023/10/28 07:26:43;;;;;;;14.27;5.05;;;10.90;99.90;;;;;;6278849;22;20019;-85
2023/10/28 07:29:09;;;;;;;12.13;4.97;;;11.00;99.90;;;;;;6306109;22;20327;-85
2023/10/28 07:31:38;;;;;;;13.85;5.10;;;10.70;99.90;;;;;;6281480;22;20025;-85
2023/10/28 07:34:05;;;;;;;13.18;5.40;;;10.70;99.90;;;;;;6307394;22;20019;-85
2023/10/28 07:36:32;;;;;;;12.40;4.93;;;10.80;99.90;;;;;;6278295;22;20053;-85
2023/10/28 07:39:03;;;;;;;13.38;5.30;;;10.80;99.90;;;;;;6281487;22;20411;-87
2023/10/28 07:41:29;;;;;;;12.05;4.90;;;10.70;99.90;;;;;;6279121;22;20068;-85
2023/10/28 07:44:09;;;;;;;12.85;4.55;;;11.30;99.90;;;;;;6278609;22;20026;-85
2023/10/28 07:46:35;;;;;;;11.88;4.85;;;10.30;99.90;;;;;;6279423;22;20012;-85
2023/10/28 07:49:01;;;;;;;13.95;5.30;;;10.10;99.90;;;;;;6278277;22;20023;-85
2023/10/28 07:51:27;;;;;;;15.13;5.03;;;10.80;99.90;;;;;;6306941;22;20324;-86
2023/10/28 07:53:53;;;;;;;12.10;4.57;;;10.90;99.90;;;;;;6280035;22;20061;-86
2023/10/28 07:56:19;;;;;;;15.30;5.70;;;11.20;99.90;;;;;;6278114;22;20019;-85
2023/10/28 07:58:45;;;;;;;14.82;5.32;;;10.40;99.90;;;;;;6283447;22;20015;-87
2023/10/28 08:01:18;;;;;;;14.15;5.40;;;10.10;99.90;;;;;;6279714;22;20039;-86
2023/10/28 08:03:46;;;;;;;14.48;5.90;;;11.10;99.90;;;;;;6278303;22;20018;-86
2023/10/28 08:06:12;;;;;;;13.95;6.18;;;11.20;99.90;;;;;;6279031;22;20011;-86
2023/10/28 08:08:39;;;;;;;14.77;6.05;;;10.20;99.90;;;;;;6279772;22;20011;-86
2023/10/28 08:11:05;;;;;;;14.27;5.95;;;11.20;99.90;;;;;;6278095;22;20042;-86
2023/10/28 08:13:32;;;;;;;15.43;5.70;;;11.50;99.90;;;;;;6279105;22;20012;-86
2023/10/28 08:16:04;;;;;;;15.32;6.40;;;10.20;99.90;;;;;;6278698;22;20019;-86
2023/10/28 08:18:33;;;;;;;13.88;6.10;;;10.20;99.90;;;;;;6277880;22;20042;-85
2023/10/28 08:21:00;;;;;;;16.45;5.78;;;11.40;99.90;;;;;;6279056;22;20015;-85
2023/10/28 08:23:26;;;;;;;13.30;5.50;;;11.40;99.90;;;;;;6278670;22;20012;-86
2023/10/28 08:25:52;;;;;;;13.88;5.60;;;11.40;99.90;;;;;;6278604;22;20332;-86
2023/10/28 08:28:18;;;;;;;16.70;6.03;;;11.50;99.90;;;;;;6277571;22;20439;-87
2023/10/28 08:30:46;;;;;;;13.07;5.43;;;11.30;99.90;;;;;;6277949;22;20073;-88
2023/10/28 08:33:20;;;;;;;15.52;6.25;;;11.60;99.90;;;;;;6277871;22;20019;-86
2023/10/28 08:35:51;;;;;;;14.82;5.50;;;9.60;99.90;;;;;;6278210;22;20191;-88
2023/10/28 08:38:17;;;;;;;13.70;6.00;;;10.40;99.90;;;;;;6277201;22;20019;-87
2023/10/28 08:40:47;;;;;;;14.30;5.90;;;11.80;99.90;;;;;;6278579;22;20047;-86
2023/10/28 08:43:19;;;;;;;13.27;5.63;;;11.60;99.90;;;;;;6280093;22;20046;-87
2023/10/28 08:45:46;;;;;;;14.88;5.35;;;10.50;99.90;;;;;;6279534;22;20325;-86
2023/10/28 08:48:14;;;;;;;14.30;5.65;;;11.10;99.90;;;;;;6280423;22;20019;-85
2023/10/28 08:50:43;;;;;;;14.25;5.70;;;11.00;99.90;;;;;;6279939;22;20019;-84
2023/10/28 08:53:11;;;;;;;11.48;5.10;;;11.60;99.90;;;;;;6279906;22;20011;-85
2023/10/28 08:55:38;;;;;;;15.02;5.30;;;11.70;99.90;;;;;;6281118;22;20517;-83
2023/10/28 08:58:06;;;;;;;15.52;5.70;;;11.80;99.90;;;;;;6281055;22;20068;-84
2023/10/28 09:00:34;;;;;;;12.00;5.40;;;11.70;99.90;;;;;;6280446;22;20015;-84
2023/10/28 09:03:06;;;;;;;11.52;5.60;;;12.30;99.90;;;;;;6281207;22;20015;-86
2023/10/28 09:05:31;;;;;;;15.10;6.30;;;11.00;99.90;;;;;;6283735;22;20399;-89
2023/10/28 09:07:57;;;;;;;14.85;5.40;;;12.00;99.90;;;;;;6280429;22;20019;-84
2023/10/28 09:10:24;;;;;;;11.50;4.85;;;12.20;99.90;;;;;;6280811;22;20015;-83
2023/10/28 09:12:52;;;;;;;11.93;5.15;;;10.90;99.90;;;;;;6280534;22;20015;-84
2023/10/28 09:15:18;;;;;;;13.40;5.35;;;11.80;99.90;;;;;;6279902;22;20057;-84
2023/10/28 09:17:44;;;;;;;14.02;5.40;;;11.90;99.90;;;;;;6281585;22;20378;-84
2023/10/28 09:20:11;;;;;;;13.27;5.90;;;12.40;99.90;;;;;;6280795;22;20016;-84
2023/10/28 09:22:40;;;;;;;12.05;5.38;;;11.90;99.90;;;;;;6280342;22;20019;-85
2023/10/28 09:25:09;;;;;;;13.95;5.57;;;10.90;99.90;;;;;;6281785;22;20011;-82
2023/10/28 09:27:34;;;;;;;13.05;5.20;;;11.00;99.90;;;;;;6279833;22;20011;-83
2023/10/28 09:30:11;;;;;;;13.38;5.40;;;11.60;99.90;;;;;;6308125;22;20069;-82
2023/10/28 09:32:38;;;;;;;14.82;5.07;;;11.00;99.90;;;;;;6280771;22;20015;-83
2023/10/28 09:35:08;;;;;;;12.93;5.40;;;10.90;99.90;;;;;;6279887;22;20098;-82
2023/10/28 09:37:39;;;;;;;16.55;5.35;;;10.90;99.90;;;;;;6280455;22;20055;-82
2023/10/28 09:40:09;;;;;;;12.68;5.72;;;10.90;99.90;;;;;;6308194;22;20034;-82
2023/10/28 09:42:37;;;;;;;13.77;5.15;;;10.90;99.90;;;;;;6280013;22;20423;-81
2023/10/28 09:45:06;;;;;;;16.55;5.50;;;10.90;99.90;;;;;;6280724;22;20042;-82
2023/10/28 09:47:39;;;;;;;11.70;5.25;;;10.90;99.90;;;;;;6280359;22;20384;-81
2023/10/28 09:50:09;;;;;;;12.27;5.00;;;12.00;99.90;;;;;;6279636;22;20019;-83
2023/10/28 09:52:41;;;;;;;14.98;5.95;;;11.00;99.90;;;;;;6280214;22;20018;-83
2023/10/28 09:55:13;;;;;;;15.07;5.90;;;11.80;99.90;;;;;;6280931;22;20117;-82
2023/10/28 09:57:40;;;;;;;12.23;5.40;;;11.00;99.90;;;;;;6307166;22;20439;-83
2023/10/28 10:00:18;;;;;;;15.02;5.72;;;12.30;99.90;;;;;;6280841;22;20018;-84
2023/10/28 10:02:58;;;;;;;13.75;5.97;;;11.00;99.90;;;;;;6278754;22;20057;-83
2023/10/28 10:05:34;;;;;;;14.18;5.63;;;11.10;99.90;;;;;;6254697;22;20018;-84
2023/10/28 10:08:00;;;;;;;13.52;5.20;;;12.30;99.90;;;;;;6280303;22;20092;-84
2023/10/28 10:10:26;;;;;;;10.95;5.20;;;12.20;99.90;;;;;;6278892;22;20012;-84
2023/10/28 10:13:02;;;;;;;13.13;5.32;;;11.10;99.90;;;;;;6280086;22;20018;-84
2023/10/28 10:15:33;;;;;;;12.10;5.75;;;11.00;99.90;;;;;;6278841;22;20057;-84
2023/10/28 10:18:10;;;;;;;12.70;5.70;;;11.00;99.90;;;;;;6277352;22;20027;-84
2023/10/28 10:20:41;;;;;;;13.93;5.78;;;11.00;99.90;;;;;;6279592;22;20011;-84
2023/10/28 10:23:07;;;;;;;11.63;5.65;;;11.00;99.90;;;;;;6279800;22;20023;-84
2023/10/28 10:25:36;;;;;;;14.57;5.80;;;11.10;99.90;;;;;;6278617;22;20018;-84
2023/10/28 10:28:19;;;;;;;13.18;5.63;;;11.10;99.90;;;;;;6280315;22;20012;-84
2023/10/28 10:30:48;;;;;;;12.52;5.93;;;11.10;99.90;;;;;;6278272;22;20064;-85
2023/10/28 10:33:27;;;;;;;13.75;6.68;;;11.90;99.90;;;;;;6277962;22;20084;-85
2023/10/28 10:35:53;;;;;;;13.60;6.68;;;11.20;99.90;;;;;;6280780;22;20097;-86
2023/10/28 10:38:28;;;;;;;14.20;6.97;;;11.30;99.90;;;;;;6277820;22;20015;-86
2023/10/28 10:40:59;;;;;;;16.27;7.38;;;11.90;99.90;;;;;;6279939;22;20347;-86
2023/10/28 10:43:30;;;;;;;15.73;7.97;;;11.50;99.90;;;;;;6279900;22;20019;-86
2023/10/28 10:45:57;;;;;;;15.00;7.60;;;11.50;99.90;;;;;;6279383;22;20019;-86
2023/10/28 10:48:44;;;;;;;14.18;7.35;;;11.50;99.90;;;;;;6294536;22;20018;-87
2023/10/28 10:51:11;;;;;;;13.80;7.65;;;11.50;99.90;;;;;;6280115;22;20037;-87
2023/10/28 10:53:43;;;;;;;13.85;6.85;;;13.00;99.90;;;;;;6279367;22;20023;-83
2023/10/28 10:56:20;;;;;;;12.73;6.80;;;12.50;99.90;;;;;;6280312;22;20022;-87
2023/10/28 10:58:46;;;;;;;13.85;7.47;;;11.60;99.90;;;;;;6278735;22;20072;-86
2023/10/28 11:01:12;;;;;;;14.75;6.70;;;12.00;99.90;;;;;;6307040;22;20343;-87
2023/10/28 11:03:39;;;;;;;13.98;6.47;;;12.90;99.90;;;;;;6290658;22;20015;-87
2023/10/28 11:06:06;;;;;;;15.30;6.30;;;11.50;99.90;;;;;;6279345;22;20691;-86
2023/10/28 11:08:32;;;;;;;13.43;6.20;;;11.60;99.90;;;;;;6279755;22;20035;-86
2023/10/28 11:10:57;;;;;;;12.23;6.00;;;11.50;99.90;;;;;;6279143;22;20034;-86
2023/10/28 11:13:23;;;;;;;14.55;5.75;;;12.80;99.90;;;;;;6278155;22;20060;-84
2023/10/28 11:15:51;;;;;;;15.63;6.68;;;11.60;99.90;;;;;;6279056;22;20347;-84
2023/10/28 11:18:26;;;;;;;12.13;5.22;;;11.50;99.90;;;;;;6279282;22;20015;-84
2023/10/28 11:20:52;;;;;;;11.38;5.47;;;12.70;99.90;;;;;;6279095;22;20090;-86
2023/10/28 11:23:19;;;;;;;12.65;5.28;;;12.50;99.90;;;;;;6279656;22;20019;-84
2023/10/28 11:25:48;;;;;;;12.25;4.80;;;12.50;99.90;;;;;;6280393;22;20060;-84
2023/10/28 11:28:13;;;;;;;11.00;5.18;;;13.00;99.90;;;;;;6278420;22;20340;-84
2023/10/28 11:30:39;;;;;;;10.45;5.00;;;13.10;99.90;;;;;;6307312;22;20461;-84
2023/10/28 11:33:07;;;;;;;12.07;5.40;;;12.90;99.90;;;;;;6279744;22;20470;-84
2023/10/28 11:35:34;;;;;;;12.15;4.80;;;12.80;99.90;;;;;;6278554;22;20096;-84
2023/10/28 11:38:03;;;;;;;11.45;4.95;;;11.80;99.90;;;;;;6279680;22;20095;-84
2023/10/28 11:40:31;;;;;;;12.15;4.82;;;12.40;99.90;;;;;;6279033;22;20081;-84
2023/10/28 11:42:58;;;;;;;10.77;5.00;;;12.30;99.90;;;;;;6278824;22;20027;-84
2023/10/28 11:45:24;;;;;;;10.68;4.68;;;13.20;99.90;;;;;;6279310;22;20451;-84
2023/10/28 11:47:51;;;;;;;11.98;4.93;;;11.80;99.90;;;;;;6279613;22;20019;-85
2023/10/28 11:50:16;;;;;;;13.93;5.45;;;11.80;99.90;;;;;;6278089;22;20034;-86
2023/10/28 11:52:43;;;;;;;11.32;4.82;;;13.00;99.90;;;;;;6279752;22;20439;-85
2023/10/28 11:55:09;;;;;;;11.52;4.93;;;13.20;99.90;;;;;;6278306;22;20504;-86
2023/10/28 11:57:35;;;;;;;11.70;5.03;;;13.30;99.90;;;;;;6279336;22;20015;-85
2023/10/28 12:00:15;;;;;;;;;;;;;;;;;;;;;
2023/10/28 12:02:53;;;;;;;10.70;5.03;;;11.70;99.90;;;;;;6278669;22;20015;-85
2023/10/28 12:05:19;;;;;;;12.23;5.63;;;12.70;99.90;;;;;;6278967;22;20091;-85
2023/10/28 12:07:48;;;;;;;13.80;6.45;;;13.50;99.90;;;;;;6280480;22;20101;-85
2023/10/28 12:10:14;;;;;;;10.82;4.80;;;12.40;99.90;;;;;;6277994;22;20057;-85
2023/10/28 12:12:39;;;;;;;11.25;4.60;;;12.90;99.90;;;;;;6279455;22;20019;-85
2023/10/28 12:15:05;;;;;;;10.68;5.18;;;13.10;99.90;;;;;;6279226;22;20011;-85
2023/10/28 12:17:31;;;;;;;13.93;6.40;;;12.40;99.90;;;;;;6278215;22;20038;-85
2023/10/28 12:19:57;;;;;;;14.88;6.53;;;13.90;99.90;;;;;;6279197;22;20081;-84
2023/10/28 12:22:24;;;;;;;10.27;5.30;;;13.70;99.90;;;;;;6279080;22;20374;-85
2023/10/28 12:24:51;;;;;;;11.40;5.05;;;13.80;99.90;;;;;;6278801;22;20367;-85
2023/10/28 12:27:17;;;;;;;11.63;6.10;;;13.30;99.90;;;;;;6279008;22;20010;-85
2023/10/28 12:29:45;;;;;;;13.60;6.25;;;12.50;99.90;;;;;;6283393;22;20050;-85
2023/10/28 12:32:10;;;;;;;11.55;6.22;;;14.00;99.90;;;;;;6288748;22;20046;-86
2023/10/28 12:34:36;;;;;;;11.48;5.80;;;13.20;99.90;;;;;;6283362;22;20427;-86
2023/10/28 12:37:02;;;;;;;13.55;5.40;;;13.90;99.90;;;;;;6280101;22;20099;-85
2023/10/28 12:39:29;;;;;;;11.10;5.03;;;12.50;99.90;;;;;;6278528;22;20023;-86
2023/10/28 12:41:55;;;;;;;12.32;4.60;;;13.80;99.90;;;;;;6280681;22;20085;-86